Time;durP1;ratioP1;P1;durP2;ratioP2;P2;SDS_P1;SDS_P2;PMS_P1;PMS_P2;Temp;Humidity;BMP_temperature;BMP_pressure;BME280_temperature;BME280_humidity;BME280_pressure;Samples;Min_cycle;Max_cycle;Signal;HPM_P1;HPM_P2
2022/10/02 00:01:55;;;;;;;26.50;16.15;;;13.30;99.90;;;;;;5074206;28;20113;-54
2022/10/02 00:04:47;;;;;;;35.00;17.20;;;13.20;99.90;;;;;;5074627;28;20477;-54
2022/10/02 00:07:15;;;;;;;45.20;19.65;;;13.20;99.90;;;;;;5059787;28;20041;-54
2022/10/02 00:09:55;;;;;;;45.75;19.20;;;13.10;99.90;;;;;;5074405;28;20025;-54
2022/10/02 00:12:23;;;;;;;60.28;21.52;;;13.30;99.90;;;;;;5074159;28;20055;-54
2022/10/02 00:14:54;;;;;;;46.17;21.05;;;13.30;99.90;;;;;;5074281;28;20032;-54
2022/10/02 00:17:34;;;;;;;118.88;26.42;;;13.40;99.90;;;;;;5074193;28;20111;-54
2022/10/02 00:20:00;;;;;;;70.75;23.17;;;13.40;99.90;;;;;;5074261;28;20397;-54
2022/10/02 00:23:04;;;;;;;73.35;21.83;;;13.40;99.90;;;;;;5074085;28;20111;-54
2022/10/02 00:25:42;;;;;;;60.92;21.92;;;13.50;99.90;;;;;;5005773;28;20112;-54
2022/10/02 00:28:21;;;;;;;57.92;20.90;;;13.40;99.90;;;;;;5011807;28;20046;-54
2022/10/02 00:31:01;;;;;;;39.65;19.98;;;13.40;99.90;;;;;;5012089;28;20108;-54
2022/10/02 00:33:45;;;;;;;46.40;18.98;;;13.40;99.90;;;;;;5012047;28;20038;-54
2022/10/02 00:36:35;;;;;;;36.38;18.08;;;13.30;99.90;;;;;;5014866;28;20036;-54
2022/10/02 00:39:09;;;;;;;35.88;17.42;;;13.20;99.90;;;;;;5015725;28;20038;-54
2022/10/02 00:41:58;;;;;;;29.75;17.35;;;13.10;99.90;;;;;;5015769;28;20059;-54
2022/10/02 00:44:48;;;;;;;25.55;15.20;;;13.10;99.90;;;;;;5008803;28;20532;-54
2022/10/02 00:47:38;;;;;;;32.55;15.85;;;13.10;99.90;;;;;;4996007;28;20117;-54
2022/10/02 00:50:26;;;;;;;28.80;16.17;;;13.20;99.90;;;;;;4996004;28;20078;-54
2022/10/02 00:53:20;;;;;;;36.72;16.58;;;13.00;99.90;;;;;;4995979;28;20276;-54
2022/10/02 00:56:11;;;;;;;33.33;16.50;;;13.00;99.90;;;;;;4995954;28;20069;-54
2022/10/02 00:58:56;;;;;;;;;;;13.00;99.90;;;;;;5004094;28;20022;-54
2022/10/02 01:01:28;;;;;;;28.60;16.05;;;12.90;99.90;;;;;;5057617;28;20349;-54
2022/10/02 01:03:55;;;;;;;29.77;17.05;;;12.90;99.90;;;;;;5057545;28;20033;-54
2022/10/02 01:06:24;;;;;;;36.42;18.88;;;13.00;99.90;;;;;;5057564;28;20021;-54
2022/10/02 01:08:51;;;;;;;42.90;18.83;;;13.00;99.90;;;;;;5057413;28;20496;-54
2022/10/02 01:11:19;;;;;;;42.42;16.75;;;13.10;99.90;;;;;;5057282;28;20049;-54
2022/10/02 01:13:46;;;;;;;36.78;17.48;;;13.20;99.90;;;;;;5057289;28;20376;-54
2022/10/02 01:16:13;;;;;;;38.40;17.58;;;13.30;99.90;;;;;;5057307;28;20029;-54
2022/10/02 01:18:40;;;;;;;49.80;18.52;;;13.30;99.90;;;;;;5057357;28;20027;-54
2022/10/02 01:21:35;;;;;;;49.30;19.15;;;13.20;99.90;;;;;;5057191;28;20028;-54
2022/10/02 01:24:15;;;;;;;55.30;19.45;;;13.20;99.90;;;;;;5059880;28;20471;-54
2022/10/02 01:26:41;;;;;;;47.40;19.40;;;13.20;99.90;;;;;;5097500;28;20036;-54
2022/10/02 01:29:07;;;;;;;49.83;19.98;;;13.20;99.90;;;;;;5097437;28;20029;-54
2022/10/02 01:31:35;;;;;;;41.65;19.38;;;13.20;99.90;;;;;;5097307;28;20032;-54
2022/10/02 01:34:01;;;;;;;36.40;18.63;;;13.20;99.90;;;;;;5097350;28;20020;-54
2022/10/02 01:36:29;;;;;;;39.67;19.25;;;13.20;99.90;;;;;;5097247;28;20024;-54
2022/10/02 01:38:56;;;;;;;42.35;20.30;;;13.20;99.90;;;;;;5097168;28;20036;-54
2022/10/02 01:41:22;;;;;;;39.55;18.63;;;13.30;99.90;;;;;;5097049;28;20040;-54
2022/10/02 01:43:55;;;;;;;38.83;18.33;;;13.20;99.90;;;;;;5097081;28;20028;-54
2022/10/02 01:46:36;;;;;;;37.50;17.83;;;13.30;99.90;;;;;;5082507;28;20036;-54
2022/10/02 01:49:16;;;;;;;38.17;19.10;;;13.30;99.90;;;;;;5076815;28;20040;-54
2022/10/02 01:51:42;;;;;;;34.70;19.38;;;13.30;99.90;;;;;;5076754;28;20466;-54
2022/10/02 01:54:25;;;;;;;34.25;19.27;;;13.20;99.90;;;;;;5076579;28;20052;-54
2022/10/02 01:57:03;;;;;;;41.80;19.48;;;13.30;99.90;;;;;;5076828;28;20116;-54
2022/10/02 02:00:00;;;;;;;38.00;19.58;;;13.30;99.90;;;;;;5076553;28;20032;-54
2022/10/02 02:02:37;;;;;;;34.75;18.90;;;13.30;99.90;;;;;;5076651;28;20032;-54
2022/10/02 02:05:28;;;;;;;31.08;17.70;;;13.30;99.90;;;;;;5076376;28;20086;-54
2022/10/02 02:08:09;;;;;;;36.53;17.67;;;13.40;99.90;;;;;;5076249;28;20029;-54
2022/10/02 02:10:53;;;;;;;31.00;17.13;;;13.40;99.90;;;;;;5076336;28;20032;-54
2022/10/02 02:13:27;;;;;;;36.67;17.05;;;13.40;99.90;;;;;;5076064;28;20036;-54
2022/10/02 02:16:05;;;;;;;29.60;17.77;;;13.30;99.90;;;;;;5076189;28;20021;-54
2022/10/02 02:18:38;;;;;;;31.13;16.50;;;13.30;99.90;;;;;;5076140;28;20024;-54
2022/10/02 02:21:12;;;;;;;32.17;17.23;;;13.30;99.90;;;;;;5076106;28;20111;-54
2022/10/02 02:23:39;;;;;;;30.48;16.27;;;13.30;99.90;;;;;;5076022;28;20039;-54
2022/10/02 02:26:11;;;;;;;32.50;17.60;;;13.30;99.90;;;;;;5094865;28;20071;-54
2022/10/02 02:28:41;;;;;;;35.10;17.70;;;13.20;99.90;;;;;;5096134;28;20036;-54
2022/10/02 02:31:10;;;;;;;36.65;17.13;;;13.20;99.90;;;;;;5096150;28;20032;-54
2022/10/02 02:33:42;;;;;;;29.65;17.55;;;13.10;99.90;;;;;;5096103;28;20028;-54
2022/10/02 02:36:14;;;;;;;38.20;18.00;;;13.20;99.90;;;;;;5096201;28;20032;-54
2022/10/02 02:38:45;;;;;;;38.17;19.42;;;13.20;99.90;;;;;;5096071;28;20020;-54
2022/10/02 02:41:20;;;;;;;31.27;17.42;;;13.10;99.90;;;;;;5096126;28;20149;-54
2022/10/02 02:44:01;;;;;;;31.30;16.33;;;13.10;99.90;;;;;;5096001;28;20040;-54
2022/10/02 02:47:02;;;;;;;25.90;15.05;;;13.20;99.90;;;;;;5080808;28;20093;-54
2022/10/02 02:49:28;;;;;;;23.98;15.10;;;13.30;99.90;;;;;;5075392;28;20078;-54
2022/10/02 02:51:58;;;;;;;25.15;13.73;;;13.30;99.90;;;;;;5075525;28;20483;-54
2022/10/02 02:54:42;;;;;;;29.40;12.60;;;13.20;99.90;;;;;;5075488;28;20031;-54
2022/10/02 02:57:11;;;;;;;22.20;12.43;;;13.30;99.90;;;;;;5074961;28;20033;-54
2022/10/02 02:59:37;;;;;;;19.27;12.25;;;13.20;99.90;;;;;;5075210;28;20037;-54
2022/10/02 03:02:03;;;;;;;19.90;11.35;;;13.20;99.90;;;;;;5075361;28;20028;-54
2022/10/02 03:04:30;;;;;;;21.83;11.88;;;13.10;99.90;;;;;;5075132;28;20073;-54
2022/10/02 03:06:59;;;;;;;20.30;11.75;;;13.00;99.90;;;;;;5074999;28;20486;-54
2022/10/02 03:09:27;;;;;;;21.42;12.25;;;13.00;99.90;;;;;;5075235;28;20083;-54
2022/10/02 03:12:06;;;;;;;22.95;12.05;;;12.90;99.90;;;;;;5075136;28;20040;-54
2022/10/02 03:15:02;;;;;;;22.05;12.63;;;13.00;99.90;;;;;;5075037;28;20029;-54
2022/10/02 03:17:39;;;;;;;26.15;13.15;;;13.00;99.90;;;;;;5075006;28;20138;-54
2022/10/02 03:20:28;;;;;;;23.73;12.48;;;13.10;99.90;;;;;;5074810;28;20044;-54
2022/10/02 03:22:54;;;;;;;22.58;12.57;;;13.10;99.90;;;;;;5037304;28;20055;-54
2022/10/02 03:25:28;;;;;;;23.13;12.43;;;13.00;99.90;;;;;;5087300;28;20028;-54
2022/10/02 03:28:20;;;;;;;22.23;11.90;;;12.90;99.90;;;;;;5095029;28;20461;-54
2022/10/02 03:30:47;;;;;;;24.20;11.55;;;12.90;99.90;;;;;;5095173;28;20039;-54
2022/10/02 03:33:15;;;;;;;17.13;11.45;;;13.00;99.90;;;;;;5095108;28;20040;-54
2022/10/02 03:35:43;;;;;;;23.92;11.07;;;12.90;99.90;;;;;;5095261;28;20434;-54
2022/10/02 03:38:12;;;;;;;16.90;10.95;;;12.70;99.90;;;;;;5095109;28;20054;-54
2022/10/02 03:40:38;;;;;;;20.20;11.48;;;12.80;99.90;;;;;;5094892;28;20027;-54
2022/10/02 03:43:04;;;;;;;18.08;10.73;;;12.80;99.90;;;;;;5094917;28;20035;-54
2022/10/02 03:45:30;;;;;;;22.75;10.38;;;12.80;99.90;;;;;;5087771;28;20031;-54
2022/10/02 03:47:56;;;;;;;15.35;10.23;;;12.80;99.90;;;;;;5074589;28;20043;-54
2022/10/02 03:50:22;;;;;;;17.38;9.80;;;12.90;99.90;;;;;;5074645;28;20032;-54
2022/10/02 03:52:52;;;;;;;19.13;10.48;;;13.00;99.90;;;;;;5074571;28;20516;-54
2022/10/02 03:55:36;;;;;;;16.87;9.10;;;12.90;99.90;;;;;;5074560;28;20061;-54
2022/10/02 03:58:12;;;;;;;21.13;8.93;;;13.00;99.90;;;;;;5074429;28;20253;-54
2022/10/02 04:00:54;;;;;;;16.83;9.27;;;13.00;99.90;;;;;;5074766;28;20082;-54
2022/10/02 04:03:33;;;;;;;23.98;10.45;;;12.90;99.90;;;;;;5074337;28;20099;-54
2022/10/02 04:06:12;;;;;;;15.73;8.98;;;12.80;99.90;;;;;;5074387;28;20020;-54
2022/10/02 04:08:49;;;;;;;13.82;7.45;;;12.80;99.90;;;;;;5075640;28;20417;-54
2022/10/02 04:11:31;;;;;;;15.90;8.88;;;12.80;99.90;;;;;;5081171;28;20020;-54
2022/10/02 04:14:12;;;;;;;13.65;8.45;;;12.80;99.90;;;;;;5080896;28;20070;-54
2022/10/02 04:16:45;;;;;;;14.80;8.20;;;12.80;99.90;;;;;;5080926;28;20078;-54
2022/10/02 04:19:24;;;;;;;16.65;9.40;;;12.80;99.90;;;;;;5081076;28;20043;-54
2022/10/02 04:22:05;;;;;;;16.80;8.85;;;12.80;99.90;;;;;;5080996;28;20032;-54
2022/10/02 04:24:55;;;;;;;21.52;9.65;;;12.80;99.90;;;;;;5086635;28;20050;-54
2022/10/02 04:27:30;;;;;;;16.27;9.27;;;12.80;99.90;;;;;;5101147;28;20031;-54
2022/10/02 04:30:04;;;;;;;15.23;9.00;;;12.90;99.90;;;;;;5101344;28;20040;-54
2022/10/02 04:32:32;;;;;;;16.83;9.80;;;13.00;99.90;;;;;;5101180;28;20099;-54
2022/10/02 04:34:58;;;;;;;15.23;8.68;;;13.00;99.90;;;;;;5101140;28;20095;-54
2022/10/02 04:37:58;;;;;;;14.77;9.02;;;12.90;99.90;;;;;;5101128;28;20039;-54
2022/10/02 04:40:54;;;;;;;17.45;9.35;;;13.00;99.90;;;;;;5101240;28;20039;-54
2022/10/02 04:43:32;;;;;;;18.65;9.18;;;12.80;99.90;;;;;;5100995;28;20031;-54
2022/10/02 04:46:43;;;;;;;13.65;8.52;;;12.80;99.90;;;;;;5089989;28;20035;-54
2022/10/02 04:49:27;;;;;;;;;;;12.90;99.90;;;;;;5081162;28;20032;-54
2022/10/02 04:52:15;;;;;;;14.30;8.00;;;13.00;99.90;;;;;;5080708;28;19920;-54
2022/10/02 04:55:12;;;;;;;11.57;7.47;;;12.80;99.90;;;;;;5080571;28;20523;-54
2022/10/02 04:58:09;;;;;;;18.90;11.30;;;12.80;99.90;;;;;;5080663;28;20035;-54
2022/10/02 05:00:45;;;;;;;32.60;19.48;;;12.80;99.90;;;;;;5080452;28;20574;-54
2022/10/02 05:03:30;;;;;;;35.10;21.58;;;12.90;99.90;;;;;;5080846;28;20422;-54
2022/10/02 05:06:15;;;;;;;37.63;25.35;;;13.00;99.90;;;;;;5080294;28;20115;-54
2022/10/02 05:08:56;;;;;;;33.92;22.23;;;13.00;99.90;;;;;;5080459;28;20035;-54
2022/10/02 05:11:44;;;;;;;49.08;30.75;;;13.20;99.90;;;;;;5080494;28;20037;-54
2022/10/02 05:14:39;;;;;;;28.70;16.08;;;13.60;99.90;;;;;;5080357;28;20032;-54
2022/10/02 05:17:21;;;;;;;15.65;9.07;;;14.10;99.90;;;;;;5080442;28;20028;-54
2022/10/02 05:20:18;;;;;;;12.57;7.75;;;14.20;99.90;;;;;;5080448;28;20033;-54
2022/10/02 05:22:59;;;;;;;16.20;7.55;;;14.30;99.90;;;;;;5077004;28;20037;-54
2022/10/02 05:25:25;;;;;;;;;;;14.60;99.90;;;;;;5090844;28;20067;-54
2022/10/02 05:28:45;;;;;;;11.13;6.38;;;14.60;99.90;;;;;;5097742;28;20018;-54
2022/10/02 05:31:25;;;;;;;15.27;5.97;;;14.60;99.90;;;;;;5034730;28;20067;-54
2022/10/02 05:34:15;;;;;;;9.75;5.63;;;15.10;99.90;;;;;;5097232;28;20035;-54
2022/10/02 05:36:50;;;;;;;13.60;7.40;;;15.80;99.90;;;;;;5097433;28;20043;-54
2022/10/02 05:39:29;;;;;;;13.88;6.43;;;16.10;99.90;;;;;;5097211;28;20233;-54
2022/10/02 05:42:19;;;;;;;11.40;6.07;;;16.30;99.90;;;;;;5097268;28;20090;-54
2022/10/02 05:45:04;;;;;;;17.15;6.72;;;16.40;99.90;;;;;;5096549;28;20050;-54
2022/10/02 05:48:05;;;;;;;9.52;5.47;;;16.70;99.90;;;;;;5076623;28;20067;-54
2022/10/02 05:50:34;;;;;;;10.97;6.23;;;16.70;99.90;;;;;;5076572;28;20478;-54
2022/10/02 05:53:35;;;;;;;15.75;7.25;;;16.60;99.90;;;;;;5076696;28;20025;-54
2022/10/02 05:56:11;;;;;;;15.20;6.53;;;16.80;99.90;;;;;;5076564;28;20044;-54
2022/10/02 05:59:01;;;;;;;15.35;5.93;;;17.10;99.90;;;;;;5076702;28;20473;-54
2022/10/02 06:01:30;;;;;;;9.80;5.80;;;17.00;99.90;;;;;;5076613;28;20436;-54
2022/10/02 06:04:19;;;;;;;7.97;5.10;;;17.30;99.90;;;;;;5076460;28;20459;-54
2022/10/02 06:06:47;;;;;;;15.05;5.63;;;17.60;99.90;;;;;;5076208;28;20492;-54
2022/10/02 06:09:19;;;;;;;16.38;6.28;;;17.20;99.90;;;;;;5076263;28;20029;-54
2022/10/02 06:11:48;;;;;;;14.55;5.63;;;16.80;99.90;;;;;;5076333;28;20046;-54
2022/10/02 06:14:17;;;;;;;16.85;6.07;;;16.80;99.90;;;;;;5076284;28;20045;-54
2022/10/02 06:16:48;;;;;;;13.00;6.07;;;16.90;99.90;;;;;;5076070;28;20056;-54
2022/10/02 06:19:51;;;;;;;14.15;7.00;;;16.90;99.90;;;;;;5076253;28;20029;-54
2022/10/02 06:22:16;;;;;;;17.55;7.63;;;16.90;99.90;;;;;;5076170;28;20024;-54
2022/10/02 06:25:09;;;;;;;16.85;7.80;;;17.50;99.90;;;;;;5083119;28;20032;-54
2022/10/02 06:27:45;;;;;;;15.88;8.13;;;17.20;99.90;;;;;;5064523;28;20105;-54
2022/10/02 06:30:17;;;;;;;19.98;7.57;;;17.60;99.90;;;;;;5096090;28;20028;-54
2022/10/02 06:33:25;;;;;;;17.05;8.45;;;17.80;99.90;;;;;;5094935;28;20389;-54
2022/10/02 06:36:18;;;;;;;16.90;9.05;;;17.70;99.90;;;;;;5096344;28;20072;-54
2022/10/02 06:39:15;;;;;;;21.38;10.35;;;17.60;99.90;;;;;;5096120;28;20035;-54
2022/10/02 06:42:08;;;;;;;18.95;9.82;;;18.00;99.90;;;;;;5095915;28;20114;-54
2022/10/02 06:44:41;;;;;;;17.30;9.65;;;18.30;99.90;;;;;;5095811;28;20093;-54
2022/10/02 06:47:27;;;;;;;17.60;8.88;;;18.70;99.90;;;;;;5055631;28;20340;-54
2022/10/02 06:50:14;;;;;;;19.98;9.55;;;19.50;99.90;;;;;;5055668;28;20021;-54
2022/10/02 06:53:00;;;;;;;17.73;9.48;;;19.40;96.90;;;;;;5055609;28;20272;-54
2022/10/02 06:55:32;;;;;;;17.70;8.50;;;19.90;98.30;;;;;;5055690;28;20027;-54
2022/10/02 06:58:34;;;;;;;19.80;9.73;;;20.30;96.70;;;;;;5055627;28;20419;-54
2022/10/02 07:01:18;;;;;;;19.23;8.55;;;20.70;95.50;;;;;;5055297;28;20108;-54
2022/10/02 07:04:21;;;;;;;16.00;7.05;;;20.90;93.90;;;;;;5055227;28;20033;-54
2022/10/02 07:07:24;;;;;;;16.85;6.30;;;21.20;93.00;;;;;;5055018;28;20506;-54
2022/10/02 07:10:16;;;;;;;19.23;8.40;;;22.10;88.10;;;;;;5055121;28;20437;-54
2022/10/02 07:12:52;;;;;;;16.23;7.95;;;22.30;90.50;;;;;;5055370;28;20065;-54
2022/10/02 07:15:37;;;;;;;12.38;6.78;;;22.60;87.40;;;;;;5055053;28;20036;-54
2022/10/02 07:18:14;;;;;;;16.50;8.23;;;23.10;86.90;;;;;;5055137;28;20029;-54
2022/10/02 07:21:14;;;;;;;16.90;8.70;;;23.30;82.40;;;;;;5055054;28;20029;-54
2022/10/02 07:24:00;;;;;;;15.15;8.50;;;22.70;81.10;;;;;;5054926;28;20035;-54
2022/10/02 07:26:36;;;;;;;18.65;9.05;;;23.10;82.60;;;;;;5054795;28;20077;-54
2022/10/02 07:29:31;;;;;;;19.30;9.48;;;23.50;80.30;;;;;;5054743;28;20032;-54
2022/10/02 07:32:33;;;;;;;17.60;7.68;;;23.40;81.00;;;;;;5054828;28;20032;-55
2022/10/02 07:35:29;;;;;;;24.30;8.25;;;23.40;79.80;;;;;;5054937;28;20036;-54
2022/10/02 07:38:10;;;;;;;20.48;8.32;;;23.20;84.30;;;;;;5045586;28;20041;-54
2022/10/02 07:41:00;;;;;;;17.13;8.32;;;22.90;80.40;;;;;;5054646;28;20041;-54
2022/10/02 07:43:58;;;;;;;18.57;8.53;;;23.80;81.70;;;;;;5054186;28;20040;-55
2022/10/02 07:46:48;;;;;;;31.95;9.35;;;24.30;79.40;;;;;;5059523;28;20044;-54
2022/10/02 07:49:45;;;;;;;22.45;7.95;;;23.60;76.50;;;;;;5074487;28;20490;-55
2022/10/02 07:52:39;;;;;;;21.20;8.25;;;23.20;77.00;;;;;;5074634;28;20025;-55
2022/10/02 07:55:25;;;;;;;28.38;7.88;;;23.70;75.70;;;;;;5074522;28;20043;-55
2022/10/02 07:58:11;;;;;;;20.92;7.93;;;24.30;75.80;;;;;;5074645;28;20077;-55
2022/10/02 08:00:44;;;;;;;26.92;7.90;;;24.90;73.30;;;;;;5074460;28;20047;-55
2022/10/02 08:03:31;;;;;;;28.40;8.15;;;25.50;69.00;;;;;;5074474;28;20449;-55
2022/10/02 08:05:58;;;;;;;23.55;7.03;;;25.90;69.10;;;;;;5074221;28;20036;-55
2022/10/02 08:08:42;;;;;;;24.30;7.13;;;26.10;69.70;;;;;;5074359;28;20035;-55
2022/10/02 08:11:17;;;;;;;31.60;7.55;;;25.60;66.10;;;;;;5074259;28;20496;-55
2022/10/02 08:14:01;;;;;;;20.42;8.40;;;25.80;69.10;;;;;;5074162;28;20049;-55
2022/10/02 08:16:33;;;;;;;17.98;6.38;;;25.60;65.70;;;;;;5074290;28;20032;-55
2022/10/02 08:19:01;;;;;;;18.40;7.40;;;25.50;67.20;;;;;;5074287;28;20055;-55
2022/10/02 08:21:33;;;;;;;25.67;8.18;;;25.20;67.70;;;;;;5074354;28;20052;-55
2022/10/02 08:24:05;;;;;;;23.08;8.45;;;25.60;67.10;;;;;;5075234;28;20028;-55
2022/10/02 08:26:46;;;;;;;24.77;8.77;;;26.40;68.10;;;;;;5094355;28;20024;-55
2022/10/02 08:29:33;;;;;;;20.08;7.60;;;27.00;65.10;;;;;;5094457;28;20024;-55
2022/10/02 08:31:59;;;;;;;24.67;7.40;;;27.20;66.20;;;;;;5094309;28;20024;-55
2022/10/02 08:34:26;;;;;;;22.55;6.43;;;26.90;61.70;;;;;;5094349;28;20027;-55
2022/10/02 08:37:13;;;;;;;25.23;6.88;;;27.00;62.00;;;;;;5094363;28;20138;-55
2022/10/02 08:39:46;;;;;;;24.95;7.47;;;27.10;62.00;;;;;;5094131;28;20451;-55
2022/10/02 08:42:39;;;;;;;25.23;7.65;;;27.50;61.10;;;;;;5094230;28;20024;-55
2022/10/02 08:45:25;;;;;;;25.02;8.02;;;27.40;62.70;;;;;;5091045;28;20056;-55
2022/10/02 08:48:09;;;;;;;18.50;6.72;;;26.80;61.70;;;;;;5073933;28;20035;-55
2022/10/02 08:51:02;;;;;;;22.00;7.18;;;27.20;61.40;;;;;;5073879;28;20033;-55
2022/10/02 08:53:34;;;;;;;20.48;4.72;;;27.60;59.70;;;;;;5073871;28;20425;-55
2022/10/02 08:56:42;;;;;;;5.35;2.50;;;27.00;59.10;;;;;;5074788;28;20025;-55
2022/10/02 08:59:25;;;;;;;6.05;2.72;;;26.70;57.10;;;;;;5038243;28;20493;-55
2022/10/02 09:01:55;;;;;;;6.57;2.88;;;26.50;56.90;;;;;;5077703;28;20111;-55
2022/10/02 09:04:59;;;;;;;8.95;3.10;;;26.50;59.00;;;;;;5077434;28;20036;-55
2022/10/02 09:07:44;;;;;;;8.38;4.13;;;27.10;59.90;;;;;;5077406;28;20040;-55
2022/10/02 09:10:33;;;;;;;5.97;3.15;;;27.60;57.70;;;;;;5077494;28;20024;-55
2022/10/02 09:13:13;;;;;;;9.95;4.30;;;28.30;59.20;;;;;;5037576;28;20509;-55
2022/10/02 09:16:21;;;;;;;14.13;5.68;;;28.30;57.00;;;;;;5077367;28;20078;-55
2022/10/02 09:19:20;;;;;;;15.23;6.97;;;28.40;56.50;;;;;;5054959;28;20049;-55
2022/10/02 09:21:54;;;;;;;13.37;6.33;;;27.70;56.50;;;;;;5077344;28;20039;-55
2022/10/02 09:24:35;;;;;;;12.02;6.50;;;27.90;59.40;;;;;;5081252;28;20485;-55
2022/10/02 09:27:39;;;;;;;12.15;6.13;;;28.60;55.10;;;;;;5097544;28;20032;-55
2022/10/02 09:31:02;;;;;;;15.52;7.28;;;27.80;55.10;;;;;;5097467;28;20020;-55
2022/10/02 09:33:40;;;;;;;15.70;7.63;;;27.40;56.40;;;;;;5034645;28;20029;-55
2022/10/02 09:36:14;;;;;;;16.80;7.57;;;26.70;57.20;;;;;;5034595;28;20091;-55
2022/10/02 09:39:10;;;;;;;21.08;8.05;;;26.10;58.90;;;;;;5034528;28;20119;-55
2022/10/02 09:41:46;;;;;;;18.75;8.10;;;26.70;60.20;;;;;;5034540;28;20189;-55
2022/10/02 09:44:33;;;;;;;18.92;6.93;;;26.70;59.40;;;;;;5034417;28;20034;-55
2022/10/02 09:47:23;;;;;;;16.45;7.25;;;26.60;64.40;;;;;;5015457;28;20033;-55
2022/10/02 09:50:01;;;;;;;19.37;6.30;;;26.90;62.20;;;;;;5014637;28;20045;-55
2022/10/02 09:52:39;;;;;;;10.30;5.38;;;27.00;57.20;;;;;;5014516;28;20737;-55
2022/10/02 09:55:34;;;;;;;18.95;6.63;;;27.00;58.20;;;;;;5014437;28;20026;-55
2022/10/02 09:58:21;;;;;;;14.00;5.35;;;27.20;58.60;;;;;;5014355;28;20046;-55
2022/10/02 10:01:13;;;;;;;11.65;5.43;;;27.50;56.10;;;;;;5014509;28;20084;-55
2022/10/02 10:03:42;;;;;;;10.20;4.32;;;27.80;56.20;;;;;;5030586;28;20091;-56
2022/10/02 10:06:23;;;;;;;10.68;4.30;;;27.80;56.30;;;;;;5056209;28;20482;-55
2022/10/02 10:09:13;;;;;;;7.65;3.63;;;27.70;54.70;;;;;;5056200;28;20527;-55
2022/10/02 10:11:57;;;;;;;;;;;27.80;55.30;;;;;;5056687;28;20037;-56
2022/10/02 10:14:32;;;;;;;4.28;2.25;;;28.40;53.20;;;;;;5056255;28;19912;-55
2022/10/02 10:17:09;;;;;;;3.10;1.85;;;28.20;53.20;;;;;;5056350;28;20356;-55
2022/10/02 10:19:53;;;;;;;3.15;1.98;;;27.50;53.50;;;;;;5056198;28;20033;-55
2022/10/02 10:22:28;;;;;;;3.08;1.95;;;27.60;53.00;;;;;;5056173;28;20033;-55
2022/10/02 10:25:09;;;;;;;3.15;2.00;;;27.50;52.70;;;;;;5073810;28;20428;-55
2022/10/02 10:27:59;;;;;;;2.75;1.70;;;27.80;52.60;;;;;;5096130;28;20039;-55
2022/10/02 10:30:37;;;;;;;3.23;2.07;;;28.10;53.50;;;;;;5096387;28;20020;-55
2022/10/02 10:33:33;;;;;;;3.67;1.92;;;28.40;53.60;;;;;;5096104;28;20296;-56
2022/10/02 10:39:38;;;;;;;6.53;1.75;;;28.70;52.00;;;;;;5095957;28;20032;-55
2022/10/02 10:42:34;;;;;;;4.93;1.60;;;28.90;49.60;;;;;;5095818;28;20451;-55
2022/10/02 10:45:03;;;;;;;2.88;1.60;;;29.20;51.50;;;;;;5093088;28;20077;-56
2022/10/02 10:47:57;;;;;;;6.82;1.40;;;29.40;48.20;;;;;;5075529;28;20120;-56
2022/10/02 10:50:34;;;;;;;3.45;1.70;;;29.20;49.80;;;;;;5075744;28;20024;-55
2022/10/02 10:53:12;;;;;;;2.58;1.30;;;28.80;50.70;;;;;;5075522;28;20466;-56
2022/10/02 10:56:06;;;;;;;2.88;1.17;;;28.70;50.00;;;;;;5075453;28;20025;-55
2022/10/02 10:59:05;;;;;;;2.33;1.33;;;29.00;50.40;;;;;;5075407;28;20090;-56
2022/10/02 11:02:18;;;;;;;4.40;1.17;;;28.60;47.40;;;;;;5075382;28;20462;-55
2022/10/02 11:05:21;;;;;;;1.88;1.20;;;28.70;47.60;;;;;;5013819;28;20055;-55
2022/10/02 11:08:24;;;;;;;2.00;1.75;;;28.60;49.80;;;;;;5075218;28;20085;-56
2022/10/02 11:11:08;;;;;;;2.72;1.50;;;28.60;48.40;;;;;;5075027;28;20037;-56
2022/10/02 11:14:02;;;;;;;5.38;1.52;;;28.10;48.90;;;;;;5074962;28;20325;-55
2022/10/02 11:16:34;;;;;;;3.50;1.50;;;28.10;48.60;;;;;;5075145;28;20017;-56
2022/10/02 11:19:23;;;;;;;2.22;1.63;;;28.30;48.40;;;;;;5074471;28;20028;-56
2022/10/02 11:22:12;;;;;;;3.35;1.38;;;28.60;47.90;;;;;;5074772;28;20458;-55
2022/10/02 11:24:54;;;;;;;4.63;1.75;;;29.00;48.60;;;;;;5081588;28;20744;-56
2022/10/02 11:27:40;;;;;;;4.75;1.88;;;29.20;51.40;;;;;;5095072;28;20185;-56
2022/10/02 11:30:18;;;;;;;3.28;1.52;;;29.20;48.70;;;;;;5095399;28;20055;-55
2022/10/02 11:32:56;;;;;;;4.95;2.00;;;29.40;49.40;;;;;;5095178;28;20042;-56
2022/10/02 11:35:30;;;;;;;3.25;1.95;;;29.80;47.30;;;;;;5095344;28;20103;-56
2022/10/02 11:38:34;;;;;;;4.22;1.63;;;29.60;47.60;;;;;;5095053;28;20024;-56
2022/10/02 11:41:19;;;;;;;3.53;1.67;;;29.50;48.60;;;;;;5094952;28;20084;-56
2022/10/02 11:43:58;;;;;;;4.40;2.00;;;28.90;45.70;;;;;;5095251;28;20043;-56
2022/10/02 11:46:35;;;;;;;4.18;1.88;;;28.30;47.20;;;;;;5080505;28;20025;-56
2022/10/02 11:49:26;;;;;;;6.93;2.80;;;27.70;47.10;;;;;;5074775;28;20108;-56
2022/10/02 11:52:10;;;;;;;2.65;1.45;;;27.80;49.00;;;;;;5074469;28;20107;-55
2022/10/02 11:54:36;;;;;;;4.28;1.88;;;27.40;47.90;;;;;;5074515;28;20037;-55
2022/10/02 11:57:07;;;;;;;2.28;1.20;;;27.70;48.70;;;;;;5074491;28;20039;-56
2022/10/02 11:59:56;;;;;;;3.03;1.70;;;28.10;48.30;;;;;;5074466;28;20062;-56
2022/10/02 12:02:31;;;;;;;4.10;1.90;;;28.50;49.30;;;;;;5074492;28;20028;-56
2022/10/02 12:05:24;;;;;;;9.98;4.80;;;28.00;48.00;;;;;;5074594;28;20037;-56
2022/10/02 12:08:08;;;;;;;7.00;2.67;;;28.40;47.80;;;;;;5074136;28;20032;-56
2022/10/02 12:10:41;;;;;;;7.65;3.25;;;27.90;51.90;;;;;;5074374;28;20029;-56
2022/10/02 12:13:25;;;;;;;7.90;3.13;;;27.80;48.80;;;;;;5074100;28;20072;-56
2022/10/02 12:16:25;;;;;;;14.77;4.95;;;27.30;49.30;;;;;;5074263;28;20081;-56
2022/10/02 12:18:59;;;;;;;12.20;3.90;;;27.50;50.00;;;;;;5074503;28;20048;-56
2022/10/02 12:27:53;;;;;;;2.45;1.63;;;28.30;47.20;;;;;;5031348;28;20201;-56
2022/10/02 12:30:22;;;;;;;3.50;2.10;;;28.60;46.10;;;;;;5033407;28;20029;-56
2022/10/02 12:33:14;;;;;;;4.63;2.80;;;28.30;44.50;;;;;;5035740;28;20041;-56
2022/10/02 12:35:43;;;;;;;6.45;2.97;;;28.50;45.30;;;;;;5035896;28;20483;-56
2022/10/02 12:38:15;;;;;;;4.72;2.50;;;28.20;46.60;;;;;;5035714;28;20042;-56
2022/10/02 12:40:44;;;;;;;6.00;2.60;;;27.90;46.30;;;;;;5035782;28;20068;-56
2022/10/02 12:43:39;;;;;;;3.42;2.40;;;28.10;45.70;;;;;;5035623;28;20033;-56
2022/10/02 12:46:22;;;;;;;4.38;3.03;;;28.50;49.80;;;;;;5024068;28;20549;-55
2022/10/02 12:49:03;;;;;;;4.72;2.50;;;28.60;47.20;;;;;;5015621;28;20049;-55
2022/10/02 12:51:36;;;;;;;6.20;2.70;;;28.40;45.40;;;;;;5015659;28;20469;-56
2022/10/02 12:54:39;;;;;;;4.28;2.20;;;28.30;46.50;;;;;;5015612;28;20595;-55
2022/10/02 13:00:22;;;;;;;6.30;3.13;;;28.20;48.60;;;;;;5057715;28;20112;-56
2022/10/02 13:03:05;;;;;;;6.13;3.72;;;28.10;47.40;;;;;;5057631;28;20055;-55
2022/10/02 13:06:09;;;;;;;6.72;2.65;;;28.40;46.90;;;;;;5057573;28;20063;-56
2022/10/02 13:08:40;;;;;;;4.53;2.63;;;28.00;47.00;;;;;;5057577;28;20091;-55
2022/10/02 13:11:43;;;;;;;5.15;3.08;;;27.90;47.30;;;;;;5057407;28;20035;-56
2022/10/02 13:14:48;;;;;;;5.80;2.38;;;27.80;47.20;;;;;;5057351;28;20037;-56
2022/10/02 13:17:52;;;;;;;4.25;1.67;;;28.10;48.30;;;;;;5034537;28;20548;-56
2022/10/02 13:20:37;;;;;;;7.22;2.50;;;27.70;47.90;;;;;;5057388;28;20037;-56
2022/10/02 13:23:28;;;;;;;5.28;2.35;;;27.80;47.90;;;;;;5057250;28;20055;-56
2022/10/02 13:25:59;;;;;;;;;;;27.70;49.40;;;;;;5091658;28;20031;-56
2022/10/02 13:28:28;;;;;;;3.97;2.10;;;27.70;51.50;;;;;;5097482;28;20349;-56
2022/10/02 13:31:22;;;;;;;4.82;1.90;;;27.60;49.70;;;;;;5097308;28;20047;-56
2022/10/02 13:34:05;;;;;;;4.07;1.83;;;27.50;47.60;;;;;;5097442;28;20044;-56
2022/10/02 13:36:52;;;;;;;3.78;2.17;;;27.60;49.80;;;;;;5097360;28;20024;-56
2022/10/02 13:39:46;;;;;;;6.32;2.70;;;27.10;47.50;;;;;;5097303;28;20032;-56
2022/10/02 13:42:35;;;;;;;7.57;2.75;;;26.90;47.60;;;;;;5096586;28;20500;-56
2022/10/02 13:45:16;;;;;;;4.03;2.20;;;26.90;50.70;;;;;;5094430;28;20028;-56
2022/10/02 13:48:11;;;;;;;9.68;3.60;;;26.90;52.30;;;;;;5076825;28;20067;-56
2022/10/02 13:50:49;;;;;;;6.70;2.40;;;27.40;54.40;;;;;;5076729;28;20024;-56
2022/10/02 13:53:30;;;;;;;7.32;2.10;;;27.40;52.40;;;;;;5076576;28;20538;-56
2022/10/02 13:56:26;;;;;;;4.32;1.80;;;27.40;53.50;;;;;;5076689;28;20084;-56
2022/10/02 13:59:22;;;;;;;5.97;1.80;;;27.40;54.10;;;;;;5076615;28;20032;-56
2022/10/02 14:02:19;;;;;;;5.53;1.35;;;27.40;48.40;;;;;;5076587;28;20036;-56
2022/10/02 14:05:15;;;;;;;7.82;2.30;;;27.40;49.10;;;;;;5076513;28;20024;-55
2022/10/02 14:07:50;;;;;;;6.03;2.00;;;26.80;47.20;;;;;;5067684;28;20040;-56